Latest Weather Observations for Friendly Beaches

IDT60801

Issued at 8:02 am EDT Sunday 1 February 2015 (issued every 30 minutes, with the page automatically refreshed every 10 minutes)

About weather observations | Map of weather stations | Latest weather observations for TAS | Other Formats
Station Details ID: 092114 Name: FRIENDLY BEACHES Lat: -42.00 Lon: 148.28 Height: 55.0 m
Data from the previous 72 hours. | See also: Recent months at Friendly Beaches
Date/Time
EDT
Temp
°C
App
Temp
°C
Dew
Point
Rel
Hum
%
Delta-T
°C
Wind Press
QNH
hPa
Press
MSL
hPa
Rain
since 9 am
mm
Dir
 
Spd
km/h
Gust
km/h
Spd
kts
Gust
kts
01/08:00am 11.7 8.4 10.8 94 0.5 SW 19 30 10 16 1012.1 1012.0 10.2
01/07:30am 11.6 8.6 10.8 95 0.4 SW 17 30 9 16 1011.7 1011.6 10.0
01/07:00am 11.6 8.3 11.0 96 0.3 SW 19 28 10 15 1011.5 1011.4 10.0
01/06:30am 11.7 7.8 10.9 95 0.4 SW 22 35 12 19 1011.3 1011.2 9.6
01/06:00am 11.7 8.4 10.9 95 0.4 SW 19 35 10 19 1011.0 1010.9 9.0
01/05:30am 11.8 8.9 11.0 95 0.4 SSW 17 32 9 17 1010.7 1010.6 8.4
01/05:00am 11.9 8.9 10.8 93 0.6 SW 17 28 9 15 1010.5 1010.4 7.6
01/04:30am 12.5 9.9 10.6 88 1.0 SSW 15 28 8 15 1010.4 1010.3 7.4
01/04:00am 12.6 8.6 10.3 86 1.2 SW 22 33 12 18 1010.4 1010.3 7.2
01/03:30am 12.8 7.9 10.0 83 1.4 SW 26 44 14 24 1010.4 1010.3 7.2
01/03:00am 13.0 9.3 10.0 82 1.5 SW 20 39 11 21 1010.4 1010.3 7.2
01/02:30am 13.0 8.0 9.6 80 1.7 SW 26 41 14 22 1010.4 1010.3 7.2
01/02:16am 13.1 7.8 9.9 81 1.6 SW 28 52 15 28 1010.4 1010.3 7.2
01/02:00am 13.1 8.6 10.1 82 1.6 SW 24 39 13 21 1010.5 1010.4 7.2
01/01:30am 13.2 9.1 10.0 81 1.7 SW 22 35 12 19 1010.6 1010.5 7.2
01/01:00am 13.4 8.8 9.8 79 1.9 SW 24 46 13 25 1010.6 1010.5 7.2
01/12:30am 13.3 9.8 10.1 81 1.7 SW 19 30 10 16 1010.8 1010.7 7.2
01/12:00am 12.8 9.3 10.3 85 1.3 SW 19 32 10 17 1010.9 1010.8 7.2
 
Date/Time
EDT
Temp
°C
App
Temp
°C
Dew
Point
Rel
Hum
%
Delta-T
°C
Wind Press
QNH
hPa
Press
MSL
hPa
Rain
since 9 am
mm
Dir
 
Spd
km/h
Gust
km/h
Spd
kts
Gust
kts
31/11:30pm 13.3 9.2 10.1 81 1.7 SW 22 35 12 19 1011.0 1010.9 7.2
31/11:00pm 13.4 8.8 9.8 79 1.9 SW 24 37 13 20 1011.0 1010.9 7.2
31/10:30pm 13.3 9.3 10.5 83 1.5 SW 22 37 12 20 1010.8 1010.7 7.2
31/10:00pm 13.1 9.3 11.0 87 1.1 SW 22 33 12 18 1011.0 1010.9 7.2
31/09:30pm 12.9 8.8 11.3 90 0.8 SW 24 41 13 22 1010.9 1010.8 7.2
31/09:00pm 12.8 9.8 11.9 94 0.5 SW 19 37 10 20 1010.6 1010.5 7.2
31/08:30pm 13.0 9.5 12.1 94 0.5 SW 22 37 12 20 1010.3 1010.2 7.0
31/08:00pm 13.0 9.9 12.1 94 0.5 SSW 20 37 11 20 1010.1 1010.0 6.8
31/07:30pm 13.1 9.6 12.3 95 0.4 SSW 22 41 12 22 1009.7 1009.6 6.6
31/07:07pm 13.1 8.5 12.3 95 0.4 SSW 28 52 15 28 1009.5 1009.4 6.4
31/07:00pm 13.2 8.6 12.4 95 0.4 SSW 28 44 15 24 1009.4 1009.3 6.4
31/06:30pm 13.4 10.4 12.6 95 0.4 SSW 20 37 11 20 1009.2 1009.1 5.8
31/06:00pm 13.6 9.9 12.7 94 0.5 SSW 24 37 13 20 1009.0 1008.9 5.4
31/05:30pm 13.8 9.3 12.7 93 0.6 SSW 28 44 15 24 1009.0 1008.9 5.2
31/05:00pm 14.3 11.3 12.7 90 0.9 SSW 20 37 11 20 1009.1 1009.0 5.0
31/04:30pm 14.4 10.7 12.6 89 1.0 SSW 24 43 13 23 1008.8 1008.7 5.0
31/04:00pm 14.0 9.9 12.7 92 0.7 SSW 26 48 14 26 1008.7 1008.6 5.0
31/03:30pm 13.8 10.2 13.0 95 0.4 SSW 24 43 13 23 1008.6 1008.5 5.0
31/03:00pm 13.7 10.1 12.9 95 0.4 SSW 24 41 13 22 1008.6 1008.5 4.6
31/02:30pm 14.1 11.5 13.3 95 0.4 SSW 19 43 10 23 1008.6 1008.5 3.6
31/02:00pm 14.2 11.7 13.4 95 0.4 SSW 19 35 10 19 1008.6 1008.5 3.0
31/01:30pm 14.3 11.1 13.2 93 0.6 SSW 22 37 12 20 1008.5 1008.4 2.6
31/01:07pm 14.6 10.0 13.5 93 0.6 SSW 30 50 16 27 1008.6 1008.5 2.6
31/01:00pm 14.6 10.4 13.6 94 0.6 SSW 28 46 15 25 1008.6 1008.5 2.6
31/12:30pm 14.4 10.2 13.6 95 0.4 SSW 28 46 15 25 1008.7 1008.6 2.6
31/12:25pm 14.2 10.0 13.4 95 0.4 SSW 28 48 15 26 1008.7 1008.6 2.6
31/12:00pm 14.3 10.8 13.5 95 0.4 SSW 24 41 13 22 1008.8 1008.7 2.4
31/11:30am 14.2 10.0 13.6 96 0.3 SSW 28 46 15 25 1008.9 1008.8 2.4
31/11:00am 13.9 9.6 13.3 96 0.3 SSW 28 46 15 25 1009.0 1008.9 2.2
31/10:30am 13.7 9.4 13.1 96 0.3 SSW 28 46 15 25 1009.0 1008.9 2.0
31/10:00am 13.7 8.6 13.1 96 0.3 SSW 32 54 17 29 1008.9 1008.8 1.6
31/09:33am 13.5 9.1 13.0 97 0.3 SSW 28 50 15 27 1009.0 1008.9 1.0
31/09:30am 13.5 9.5 13.0 97 0.3 SSW 26 43 14 23 1009.0 1008.9 1.0
31/09:00am 13.4 9.0 12.9 97 0.3 SSW 28 46 15 25 1009.0 1008.9 21.2
31/08:57am 13.4 9.0 12.9 97 0.3 SSW 28 46 15 25 1009.0 1008.9 21.2
31/08:30am 13.3 9.6 12.7 96 0.3 SSW 24 50 13 27 1008.8 1008.7 20.2
31/08:00am 13.3 9.6 12.7 96 0.3 SSW 24 41 13 22 1008.8 1008.7 19.2
31/07:31am 13.2 8.7 12.6 96 0.3 SSW 28 61 15 33 1008.6 1008.5 18.8
31/07:30am 13.3 9.2 12.7 96 0.3 SSW 26 46 14 25 1008.8 1008.7 18.8
31/07:00am 13.2 7.9 12.6 96 0.3 SSW 32 50 17 27 1008.6 1008.5 18.2
31/06:36am 13.2 8.7 12.6 96 0.3 SSW 28 48 15 26 1008.6 1008.5 18.0
31/06:30am 13.2 9.1 12.6 96 0.3 SSW 26 43 14 23 1008.6 1008.5 18.0
31/06:00am 13.1 8.6 12.6 97 0.3 SSW 28 48 15 26 1008.5 1008.4 17.6
31/05:38am 13.1 8.6 12.6 97 0.3 SSW 28 50 15 27 1008.3 1008.2 17.2
31/05:30am 13.1 9.7 12.6 97 0.3 SSW 22 41 12 22 1008.2 1008.1 17.0
31/05:00am 13.0 10.0 12.5 97 0.3 SSW 20 44 11 24 1008.3 1008.2 16.4
31/04:30am 12.9 9.1 12.4 97 0.3 SSW 24 39 13 21 1008.3 1008.2 15.8
31/04:00am 12.8 9.0 12.3 97 0.3 SW 24 37 13 20 1008.7 1008.6 14.8
31/03:30am 12.8 8.6 12.3 97 0.3 SW 26 41 14 22 1008.8 1008.7 13.6
31/03:00am 12.8 8.6 12.3 97 0.3 SW 26 46 14 25 1009.1 1009.0 13.0
31/02:48am 12.8 8.2 12.3 97 0.3 SW 28 46 15 25 1009.1 1009.0 12.6
31/02:30am 12.7 8.8 12.2 97 0.3 SSW 24 39 13 21 1009.3 1009.2 12.2
31/02:00am 12.6 8.3 12.1 97 0.3 SSW 26 43 14 23 1009.8 1009.7 11.2
31/01:30am 12.5 7.8 12.0 97 0.3 SSW 28 50 15 27 1010.2 1010.1 10.4
31/01:28am 12.5 7.8 12.0 97 0.3 SSW 28 50 15 27 1010.2 1010.1 10.4
31/01:00am 12.3 9.3 11.8 97 0.3 SW 19 30 10 16 1010.4 1010.3 9.4
31/12:30am 12.3 9.1 11.8 97 0.3 SW 20 33 11 18 1010.5 1010.4 7.8
31/12:00am 12.3 8.7 11.8 97 0.3 SW 22 35 12 19 1010.7 1010.6 7.0
 
Date/Time
EDT
Temp
°C
App
Temp
°C
Dew
Point
Rel
Hum
%
Delta-T
°C
Wind Press
QNH
hPa
Press
MSL
hPa
Rain
since 9 am
mm
Dir
 
Spd
km/h
Gust
km/h
Spd
kts
Gust
kts
30/11:30pm 12.3 9.3 11.8 97 0.3 SW 19 30 10 16 1011.1 1011.0 5.4
30/11:13pm 12.4 7.6 11.8 96 0.3 SSW 28 48 15 26 1011.3 1011.2 4.8
30/11:00pm 12.3 7.9 11.7 96 0.3 SSW 26 52 14 28 1011.3 1011.2 4.6
30/10:30pm 12.1 8.0 11.5 96 0.3 SW 24 41 13 22 1011.7 1011.6 3.8
30/10:00pm 12.1 8.0 11.5 96 0.3 SW 24 44 13 24 1012.0 1011.9 3.2
30/09:30pm 12.1 7.3 11.5 96 0.3 SSW 28 50 15 27 1012.3 1012.2 2.6
30/09:24pm 12.0 7.1 11.2 95 0.4 SSW 28 50 15 27 1012.3 1012.2 2.4
30/09:00pm 12.0 7.4 11.2 95 0.4 SSW 26 46 14 25 1012.3 1012.2 1.8
30/08:30pm 12.0 7.0 11.1 94 0.5 SSW 28 52 15 28 1012.4 1012.3 1.2
30/08:17pm 12.1 7.2 11.2 94 0.5 SSW 28 50 15 27 1012.3 1012.2 0.8
30/08:00pm 12.1 7.5 11.2 94 0.5 SW 26 44 14 24 1012.4 1012.3 0.4
30/07:39pm 12.3 6.9 11.0 92 0.7 SSW 30 48 16 26 1012.2 1012.1 0.2
30/07:30pm 12.3 7.7 11.0 92 0.7 SSW 26 46 14 25 1012.3 1012.2 0.2
30/07:06pm 12.7 7.7 10.8 88 1.0 SSW 28 52 15 28 1012.3 1012.2 0.0
30/07:00pm 12.9 9.4 10.8 87 1.1 SSW 20 35 11 19 1012.4 1012.3 0.0
30/06:33pm 12.6 7.5 10.5 87 1.1 SSW 28 48 15 26 1012.5 1012.4 0.0
30/06:30pm 12.8 8.5 10.9 88 1.0 SSW 24 46 13 25 1012.6 1012.5 0.0
30/06:03pm 13.9 8.6 9.7 76 2.2 SSW 28 46 15 25 1012.6 1012.5 0.0
30/06:00pm 13.9 8.6 9.7 76 2.2 SSW 28 46 15 25 1012.7 1012.6 0.0
30/05:30pm 14.4 8.0 9.4 72 2.6 SSW 33 52 18 28 1012.9 1012.8 0.0
30/05:03pm 14.3 8.8 9.3 72 2.6 SSW 28 48 15 26 1013.2 1013.1 0.0
30/05:00pm 14.3 8.5 9.5 73 2.5 SSW 30 46 16 25 1013.3 1013.2 0.0
30/04:35pm 15.0 9.5 9.1 68 3.0 S 28 54 15 29 1013.4 1013.3 0.0
30/04:30pm 14.9 10.6 9.3 69 2.9 S 22 37 12 20 1013.5 1013.4 0.0
30/04:02pm 14.5 8.6 9.1 70 2.8 S 30 52 16 28 1013.6 1013.5 0.0
30/04:00pm 14.5 8.7 9.3 71 2.7 S 30 46 16 25 1013.6 1013.5 0.0
30/03:30pm 14.9 9.2 9.7 71 2.7 S 30 54 16 29 1013.8 1013.7 0.0
30/03:00pm 14.6 9.6 10.8 78 2.0 S 28 46 15 25 1014.1 1014.0 0.0
30/02:30pm 14.8 9.1 9.8 72 2.6 S 30 48 16 26 1014.2 1014.1 0.0
30/02:02pm 14.6 9.1 9.2 70 2.8 S 28 48 15 26 1014.5 1014.4 0.0
30/02:00pm 14.5 9.4 9.3 71 2.7 S 26 48 14 26 1014.5 1014.4 0.0
30/01:30pm 14.6 10.0 9.6 72 2.6 S 24 44 13 24 1014.7 1014.6 0.0
30/01:00pm 15.2 10.5 9.3 68 3.0 S 24 43 13 23 1014.8 1014.7 0.0
30/12:35pm 14.6 9.1 9.2 70 2.8 S 28 50 15 27 1015.1 1015.0 0.0
30/12:30pm 14.7 10.0 9.1 69 2.9 S 24 39 13 21 1015.2 1015.1 0.0
30/12:00pm 14.9 11.0 9.3 69 2.9 S 20 39 11 21 1015.5 1015.4 0.0
30/11:30am 15.1 9.5 8.8 66 3.2 S 28 46 15 25 1015.7 1015.6 0.0
30/11:00am 14.8 10.9 9.4 70 2.8 S 20 39 11 21 1016.0 1015.9 0.0
30/10:30am 13.8 8.2 8.8 72 2.5 S 28 39 15 21 1016.2 1016.1 0.0
30/10:00am 14.3 8.6 8.3 67 3.0 S 28 44 15 24 1016.5 1016.4 0.0
30/09:30am 14.3 9.8 8.7 69 2.8 S 22 33 12 18 1016.7 1016.6 0.0
30/09:00am 13.8 8.8 8.2 69 2.8 S 24 39 13 21 1016.7 1016.6 4.6
30/08:30am 13.0 8.5 8.7 75 2.2 S 22 41 12 22 1016.8 1016.7 4.6
30/08:00am 13.0 9.1 8.5 74 2.2 S 19 32 10 17 1017.0 1016.9 4.6
30/07:30am 12.8 8.9 8.5 75 2.1 S 19 32 10 17 1016.9 1016.8 4.6
30/07:00am 12.8 9.0 7.5 70 2.6 S 17 30 9 16 1017.0 1016.9 4.6
30/06:30am 12.7 8.9 7.4 70 2.6 S 17 35 9 19 1017.1 1017.0 4.6
30/06:00am 12.7 7.9 7.4 70 2.6 S 22 32 12 17 1017.1 1017.0 4.6
30/05:30am 12.6 8.7 7.3 70 2.6 S 17 28 9 15 1017.1 1017.0 4.6
30/05:00am 12.7 8.8 7.2 69 2.7 S 17 30 9 16 1017.3 1017.2 4.6
30/04:30am 12.7 8.5 7.4 70 2.6 SSW 19 33 10 18 1017.4 1017.3 4.6
30/04:00am 12.7 7.9 7.2 69 2.7 S 22 33 12 18 1017.6 1017.5 4.6
30/03:30am 12.5 7.1 7.8 73 2.3 S 26 37 14 20 1017.7 1017.6 4.6
30/03:00am 12.4 8.4 8.3 76 2.0 S 19 33 10 18 1018.0 1017.9 4.6
30/02:30am 11.9 8.4 8.6 80 1.6 SSW 17 28 9 15 1018.4 1018.3 4.6
30/02:00am 11.5 8.4 8.7 83 1.4 SSW 15 24 8 13 1018.8 1018.7 4.6
30/01:30am 12.6 8.8 7.7 72 2.4 SSW 17 28 9 15 1019.0 1018.9 4.4
30/01:00am 12.7 7.9 7.2 69 2.7 S 22 35 12 19 1019.3 1019.2 4.4
30/12:30am 12.5 8.7 7.6 72 2.4 SSW 17 28 9 15 1019.4 1019.3 4.4
30/12:00am 12.7 8.3 6.5 66 3.0 S 19 30 10 16 1020.1 1019.9 4.4
 
Date/Time
EDT
Temp
°C
App
Temp
°C
Dew
Point
Rel
Hum
%
Delta-T
°C
Wind Press
QNH
hPa
Press
MSL
hPa
Rain
since 9 am
mm
Dir
 
Spd
km/h
Gust
km/h
Spd
kts
Gust
kts
29/11:30pm 12.5 7.9 6.5 67 2.9 S 20 33 11 18 1020.4 1020.2 4.4
29/11:00pm 12.6 8.0 6.4 66 2.9 S 20 33 11 18 1020.9 1020.7 4.4
29/10:30pm 12.6 9.1 7.1 69 2.7 S 15 26 8 14 1021.2 1021.0 4.4
29/10:00pm 12.6 8.4 7.3 70 2.6 S 19 35 10 19 1021.0 1020.8 4.4
29/09:30pm 12.5 8.5 6.5 67 2.9 SSW 17 30 9 16 1021.0 1020.8 4.4
29/09:00pm 12.8 7.9 7.0 68 2.8 S 22 33 12 18 1021.1 1020.9 4.4
29/08:30pm 12.8 8.5 6.8 67 2.9 S 19 32 10 17 1021.3 1021.1 4.4
29/08:00pm 13.1 8.2 7.1 67 2.9 S 22 32 12 17 1021.4 1021.2 4.4
29/07:30pm 13.4 8.0 6.5 63 3.3 S 24 44 13 24 1021.3 1021.1 4.4
29/07:00pm 13.8 8.1 6.9 63 3.3 S 26 41 14 22 1021.2 1021.0 4.4
29/06:30pm 14.1 8.8 8.3 68 2.9 SSE 26 39 14 21 1021.1 1020.9 4.4
29/06:00pm 14.8 10.0 8.7 67 3.1 S 24 35 13 19 1021.2 1021.0 4.4
29/05:30pm 14.6 8.3 7.6 63 3.5 SSE 30 43 16 23 1021.5 1021.3 4.4
29/05:00pm 15.1 8.9 9.2 68 3.0 SSE 32 43 17 23 1021.8 1021.6 4.4
29/04:30pm 15.6 11.9 10.2 70 2.8 SSE 20 35 11 19 1021.9 1021.7 4.4
29/04:00pm 15.3 9.2 9.9 70 2.8 SSE 32 46 17 25 1021.9 1021.7 4.4
29/03:30pm 15.0 7.7 10.2 73 2.5 SSE 39 50 21 27 1022.1 1021.9 4.4
29/03:00pm 16.2 10.3 10.3 68 3.1 SSE 32 46 17 25 1022.1 1021.9 4.4
29/02:30pm 15.9 10.4 10.4 70 2.9 SSE 30 44 16 24 1022.3 1022.2 4.4
29/02:00pm 15.7 10.7 10.9 73 2.6 SSE 28 37 15 20 1022.6 1022.5 4.4
29/01:30pm 14.8 11.2 11.8 82 1.6 S 22 35 12 19 1022.9 1022.8 4.4
29/01:00pm 14.7 9.7 11.1 79 1.9 SSE 28 35 15 19 1022.9 1022.8 4.4
29/12:30pm 15.4 9.7 11.2 76 2.3 SSE 32 46 17 25 1022.9 1022.8 4.4
29/12:00pm 15.1 11.0 12.6 85 1.4 SSE 26 35 14 19 1023.1 1023.0 4.4
29/11:30am 13.5 9.3 12.4 93 0.6 SSE 26 39 14 21 1023.4 1023.3 4.4
29/11:00am 12.9 9.0 10.8 87 1.1 SSE 22 41 12 22 1023.3 1023.2 3.6
29/10:30am 13.6 10.7 12.3 92 0.7 S 19 30 10 16 1023.3 1023.2 3.6
29/10:00am 12.8 10.6 12.0 95 0.4 S 15 24 8 13 1023.6 1023.5 3.6
29/09:30am 12.2 10.4 10.8 91 0.7 S 11 26 6 14 1023.5 1023.4 0.2
29/09:00am 12.2 10.2 10.3 88 1.0 S 11 17 6 9 1023.6 1023.5 5.8
29/08:30am 12.8 8.5 9.3 79 1.8 SSE 22 35 12 19 1023.4 1023.3 4.0

Other Formats:

Comma delimited format used in spreadsheet applications
http://www.bom.gov.au/fwo/IDT60801/IDT60801.94987.axf

JavaScript Object Notation format (JSON) in row-major order
http://www.bom.gov.au/fwo/IDT60801/IDT60801.94987.json